createdAt,value
2024-05-09T00:00:31.529Z,67.46
2024-05-09T00:03:05.683Z,67.68
2024-05-09T00:05:32.968Z,67.47
2024-05-09T00:08:00.153Z,66.81
2024-05-09T00:10:35.295Z,66.25
2024-05-09T00:13:05.240Z,67.29
2024-05-09T00:15:32.462Z,68.04
2024-05-09T00:17:59.707Z,69.42
2024-05-09T00:20:35.274Z,69.88
2024-05-09T00:23:05.807Z,70.61
2024-05-09T00:25:32.909Z,70.78
2024-05-09T00:27:59.995Z,71.66
2024-05-09T00:30:33.634Z,71.88
2024-05-09T00:33:04.052Z,72.28
2024-05-09T00:35:31.835Z,72.36
2024-05-09T00:37:59.004Z,73.04
2024-05-09T00:40:35.509Z,73.54
2024-05-09T00:43:06.849Z,73.88
2024-05-09T00:45:34.050Z,73.92
2024-05-09T00:48:01.456Z,73.93
2024-05-09T00:50:35.695Z,73.80
2024-05-09T00:53:04.429Z,73.98
2024-05-09T00:55:31.552Z,74.11
2024-05-09T00:57:58.644Z,74.65
2024-05-09T01:00:34.968Z,75.83
2024-05-09T01:03:06.564Z,75.57
2024-05-09T01:05:33.984Z,76.22
2024-05-09T01:08:01.405Z,75.47
2024-05-09T01:10:34.124Z,75.53
2024-05-09T01:13:02.532Z,75.92
2024-05-09T01:15:29.617Z,76.47
2024-05-09T01:17:57.052Z,76.38
2024-05-09T01:20:36.421Z,76.07
2024-05-09T01:23:08.686Z,75.56
2024-05-09T01:25:36.046Z,75.23
2024-05-09T01:28:02.828Z,74.97
2024-05-09T01:30:34.739Z,75.11
2024-05-09T01:33:04.055Z,74.81
2024-05-09T01:35:31.098Z,75.31
2024-05-09T01:37:57.916Z,74.40
2024-05-09T01:40:33.573Z,74.45
2024-05-09T01:43:04.559Z,74.18
2024-05-09T01:45:31.377Z,74.64
2024-05-09T01:47:58.397Z,74.25
2024-05-09T01:50:36.705Z,74.12
2024-05-09T01:53:07.307Z,74.24
2024-05-09T01:55:34.147Z,74.09
2024-05-09T01:58:00.946Z,73.63
2024-05-09T02:00:36.809Z,73.19
2024-05-09T02:03:07.633Z,73.35
2024-05-09T02:05:34.687Z,72.68
2024-05-09T02:08:01.555Z,72.37
2024-05-09T02:10:32.529Z,71.53
2024-05-09T02:13:00.189Z,70.61
2024-05-09T02:15:26.928Z,71.01
2024-05-09T02:17:56.357Z,70.04
2024-05-09T02:20:30.555Z,68.68
2024-05-09T02:23:02.824Z,69.75
2024-05-09T02:25:29.587Z,70.67
2024-05-09T02:27:56.659Z,70.00
2024-05-09T02:30:30.715Z,68.31
2024-05-09T02:33:05.591Z,67.18
2024-05-09T02:35:32.519Z,67.16
2024-05-09T02:38:01.494Z,68.04
2024-05-09T02:40:36.271Z,67.04
2024-05-09T02:43:05.562Z,67.93
2024-05-09T02:45:32.469Z,67.56
2024-05-09T02:47:59.456Z,68.30
2024-05-09T02:50:34.190Z,68.61
2024-05-09T02:53:05.448Z,68.89
2024-05-09T02:55:32.458Z,70.67
2024-05-09T02:57:59.373Z,70.78
2024-05-09T03:00:34.753Z,69.83
2024-05-09T03:03:06.448Z,69.83
2024-05-09T03:05:33.735Z,70.33
2024-05-09T03:08:00.538Z,69.74
2024-05-09T03:10:29.174Z,68.24
2024-05-09T03:13:01.735Z,68.60
2024-05-09T03:15:29.410Z,67.89
2024-05-09T03:17:56.283Z,67.48
2024-05-09T03:20:27.567Z,67.65
2024-05-09T03:22:59.387Z,68.53
2024-05-09T03:25:26.101Z,66.60
2024-05-09T03:27:52.778Z,65.28
2024-05-09T03:30:26.193Z,64.51
2024-05-09T03:33:02.714Z,64.12
2024-05-09T03:35:29.960Z,63.13
2024-05-09T03:37:57.118Z,62.11
2024-05-09T03:40:28.909Z,60.96
2024-05-09T03:42:57.814Z,60.82
2024-05-09T03:45:24.861Z,61.45
2024-05-09T03:47:52.485Z,60.69
2024-05-09T03:50:26.301Z,60.15
2024-05-09T03:53:00.830Z,59.75
2024-05-09T03:55:28.132Z,59.86
2024-05-09T03:57:55.210Z,65.06
2024-05-09T04:00:30.900Z,67.06
2024-05-09T04:03:04.438Z,71.01
2024-05-09T04:05:32.187Z,72.53
2024-05-09T04:07:59.479Z,74.07
2024-05-09T04:10:32.363Z,75.03
2024-05-09T04:13:00.745Z,73.81
2024-05-09T04:15:27.531Z,73.19
2024-05-09T04:17:54.436Z,72.20
2024-05-09T04:20:32.466Z,71.12
2024-05-09T04:23:04.755Z,69.95
2024-05-09T04:25:31.448Z,69.99
2024-05-09T04:27:58.188Z,69.80
2024-05-09T04:30:34.454Z,69.38
2024-05-09T04:33:05.678Z,69.73
2024-05-09T04:35:32.669Z,70.31
2024-05-09T04:37:59.475Z,69.01
2024-05-09T04:40:33.069Z,68.37
2024-05-09T04:43:02.535Z,68.64
2024-05-09T04:45:29.308Z,68.80
2024-05-09T04:47:56.182Z,68.89
2024-05-09T04:50:30.226Z,68.07
2024-05-09T04:53:03.251Z,68.06
2024-05-09T04:55:30.305Z,68.74
2024-05-09T04:57:57.062Z,69.65
2024-05-09T05:00:32.454Z,69.76
2024-05-09T05:03:03.543Z,69.06
2024-05-09T05:05:30.347Z,70.02
2024-05-09T05:07:57.068Z,69.27
2024-05-09T05:10:32.954Z,69.57
2024-05-09T05:13:02.624Z,70.60
2024-05-09T05:15:29.688Z,71.17
2024-05-09T05:17:56.847Z,70.86
2024-05-09T05:20:31.039Z,69.56
2024-05-09T05:23:01.065Z,69.54
2024-05-09T05:25:28.321Z,69.17
2024-05-09T05:27:55.394Z,68.66
2024-05-09T05:30:28.750Z,68.54
2024-05-09T05:33:00.362Z,69.31
2024-05-09T05:35:27.833Z,69.69
2024-05-09T05:37:54.611Z,70.79
2024-05-09T05:40:28.512Z,70.74
2024-05-09T05:43:02.416Z,70.44
2024-05-09T05:45:29.140Z,69.84
2024-05-09T05:47:56.098Z,69.74
2024-05-09T05:50:28.040Z,69.95
2024-05-09T05:53:02.100Z,69.84
2024-05-09T05:55:28.939Z,69.72
2024-05-09T05:57:55.623Z,68.88
2024-05-09T06:00:29.731Z,68.55
2024-05-09T06:03:04.123Z,68.74
2024-05-09T06:05:30.956Z,68.84
2024-05-09T06:07:57.927Z,69.59
2024-05-09T06:10:30.409Z,68.37
2024-05-09T06:13:04.379Z,68.51
2024-05-09T06:15:31.065Z,68.91
2024-05-09T06:17:57.949Z,67.94
2024-05-09T06:20:34.282Z,66.68
2024-05-09T06:23:03.754Z,67.44
2024-05-09T06:25:30.439Z,66.73
2024-05-09T06:27:57.081Z,66.29
2024-05-09T06:30:35.042Z,66.42
2024-05-09T06:33:06.369Z,66.11
2024-05-09T06:35:34.148Z,66.32
2024-05-09T06:38:01.771Z,65.38
2024-05-09T06:40:36.888Z,66.98
2024-05-09T06:43:06.361Z,66.44
2024-05-09T06:45:33.562Z,67.87
2024-05-09T06:48:00.848Z,67.15
2024-05-09T06:50:35.274Z,67.28
2024-05-09T06:53:04.603Z,65.48
2024-05-09T06:55:31.714Z,65.71
2024-05-09T06:57:58.452Z,65.46
2024-05-09T07:00:34.373Z,65.83
2024-05-09T07:03:05.972Z,65.86
2024-05-09T07:05:35.512Z,65.01
2024-05-09T07:08:04.819Z,63.56
2024-05-09T07:10:35.161Z,64.08
2024-05-09T07:13:05.646Z,63.81
2024-05-09T07:15:32.440Z,63.63
2024-05-09T07:17:59.275Z,63.33
2024-05-09T07:20:34.370Z,62.63
2024-05-09T07:23:04.593Z,61.00
2024-05-09T07:25:31.817Z,63.31
2024-05-09T07:28:01.152Z,64.02
2024-05-09T07:30:33.240Z,62.03
2024-05-09T07:33:02.311Z,61.55
2024-05-09T07:35:29.974Z,61.42
2024-05-09T07:37:57.256Z,62.22
2024-05-09T07:40:33.084Z,62.55
2024-05-09T07:43:03.304Z,62.82
2024-05-09T07:52:24.027Z,62.02
2024-05-09T07:53:39.327Z,59.58
2024-05-09T07:56:10.208Z,59.87
2024-05-09T07:58:41.809Z,59.93
2024-05-09T08:01:11.358Z,58.88
2024-05-09T08:03:41.853Z,58.13
2024-05-09T08:06:09.151Z,58.84
2024-05-09T08:08:36.603Z,59.66
2024-05-09T08:11:05.935Z,62.12
2024-05-09T08:13:34.227Z,60.01
2024-05-09T08:16:01.411Z,60.54
2024-05-09T08:18:31.905Z,59.21
2024-05-09T08:20:59.393Z,59.05
2024-05-09T08:23:26.870Z,56.67
2024-05-09T08:25:53.607Z,57.03
2024-05-09T08:28:20.463Z,57.05
2024-05-09T08:30:47.546Z,55.69
2024-05-09T08:33:14.688Z,58.01
2024-05-09T08:35:41.628Z,55.11
2024-05-09T08:38:08.453Z,53.74
2024-05-09T08:40:37.622Z,54.98
2024-05-09T08:43:05.105Z,54.97
2024-05-09T08:45:33.838Z,56.08
2024-05-09T08:48:03.656Z,54.98
2024-05-09T08:50:37.860Z,56.79
2024-05-09T08:53:06.335Z,57.16
2024-05-09T08:55:37.356Z,57.85
2024-05-09T08:58:08.792Z,59.46
2024-05-09T09:00:37.452Z,59.91
2024-05-09T09:03:04.730Z,57.14
2024-05-09T09:05:31.965Z,56.67
2024-05-09T09:07:58.906Z,56.14
2024-05-09T09:10:39.639Z,55.59
2024-05-09T09:13:06.937Z,55.41
2024-05-09T09:15:34.235Z,55.59
2024-05-09T09:18:01.658Z,56.98
2024-05-09T09:20:36.269Z,54.63
2024-05-09T09:23:04.891Z,56.57
2024-05-09T09:25:34.348Z,55.96
2024-05-09T09:28:02.664Z,55.98
2024-05-09T09:30:36.527Z,55.44
2024-05-09T09:33:05.649Z,56.98
2024-05-09T09:35:33.021Z,55.91
2024-05-09T09:38:03.085Z,54.51
2024-05-09T09:40:32.954Z,55.34
2024-05-09T09:43:02.000Z,55.58
2024-05-09T09:45:29.258Z,53.73
2024-05-09T09:47:57.473Z,54.38
2024-05-09T09:50:31.782Z,52.59
2024-05-09T09:53:01.775Z,53.76
2024-05-09T09:55:28.921Z,51.18
2024-05-09T09:57:58.379Z,52.76
2024-05-09T10:00:30.617Z,53.36
2024-05-09T10:03:00.531Z,53.36
2024-05-09T10:05:28.435Z,54.92
2024-05-09T10:07:56.047Z,52.93
2024-05-09T10:10:30.223Z,54.23
2024-05-09T10:13:02.182Z,50.24
2024-05-09T10:15:29.486Z,50.76
2024-05-09T10:17:56.313Z,53.54
2024-05-09T10:20:27.973Z,53.00
2024-05-09T10:22:57.685Z,49.64
2024-05-09T10:25:24.531Z,53.31
2024-05-09T10:27:51.362Z,52.79
2024-05-09T10:30:25.844Z,53.97
2024-05-09T10:32:57.735Z,51.47
2024-05-09T10:35:25.002Z,53.24
2024-05-09T10:37:51.811Z,53.31
2024-05-09T10:40:25.853Z,52.84
2024-05-09T10:42:57.125Z,52.86
2024-05-09T10:45:24.070Z,51.05
2024-05-09T10:47:50.984Z,52.81
2024-05-09T10:50:25.244Z,55.52
2024-05-09T10:52:55.826Z,54.98
2024-05-09T10:55:24.867Z,52.79
2024-05-09T10:57:51.783Z,52.10
2024-05-09T11:00:27.370Z,51.48
2024-05-09T11:03:00.942Z,50.06
2024-05-09T11:05:27.803Z,51.49
2024-05-09T11:07:54.613Z,53.22
2024-05-09T11:10:27.725Z,51.95
2024-05-09T11:13:00.353Z,48.73
2024-05-09T11:15:27.077Z,52.89
2024-05-09T11:17:54.153Z,48.96
2024-05-09T11:20:29.084Z,50.65
2024-05-09T11:22:57.093Z,51.80
2024-05-09T11:25:24.313Z,52.79
2024-05-09T11:27:53.848Z,50.02
2024-05-09T11:30:26.990Z,50.33
2024-05-09T11:32:59.814Z,52.00
2024-05-09T11:35:30.237Z,52.56
2024-05-09T11:37:58.313Z,52.07
2024-05-09T11:40:28.660Z,53.34
2024-05-09T11:43:01.534Z,51.63
2024-05-09T11:45:29.876Z,52.42
2024-05-09T11:47:57.038Z,51.33
2024-05-09T11:50:29.881Z,49.70
2024-05-09T11:53:01.731Z,49.96
2024-05-09T11:55:28.828Z,52.14
2024-05-09T11:57:55.922Z,50.77
2024-05-09T12:00:33.197Z,50.06
2024-05-09T12:03:03.543Z,51.36
2024-05-09T12:05:30.427Z,51.91
2024-05-09T12:07:57.155Z,51.10
2024-05-09T12:10:32.430Z,50.58
2024-05-09T12:13:02.006Z,48.16
2024-05-09T12:15:31.539Z,50.04
2024-05-09T12:18:00.248Z,52.38
2024-05-09T12:20:36.184Z,51.81
2024-05-09T12:23:05.735Z,52.25
2024-05-09T12:25:32.472Z,50.89
2024-05-09T12:27:59.517Z,53.88
2024-05-09T12:30:35.333Z,51.97
2024-05-09T12:33:05.535Z,52.08
2024-05-09T12:35:32.361Z,51.04
2024-05-09T12:38:00.338Z,48.01
2024-05-09T12:40:35.603Z,50.79
2024-05-09T12:43:05.402Z,49.39
2024-05-09T12:45:32.487Z,47.89
2024-05-09T12:48:00.879Z,47.01
2024-05-09T12:50:32.614Z,46.73
2024-05-09T12:53:01.695Z,45.16
2024-05-09T12:55:33.926Z,45.15
2024-05-09T12:58:08.365Z,46.93
2024-05-09T13:00:38.322Z,50.18
2024-05-09T13:03:06.728Z,48.56
2024-05-09T13:05:34.138Z,51.42
2024-05-09T13:08:01.438Z,50.61
2024-05-09T13:10:32.403Z,48.98
2024-05-09T13:13:01.427Z,49.44
2024-05-09T13:15:29.501Z,47.45
2024-05-09T13:17:59.230Z,46.04
2024-05-09T13:20:33.073Z,49.21
2024-05-09T13:23:02.571Z,44.55
2024-05-09T13:25:29.779Z,45.62
2024-05-09T13:27:57.036Z,43.94
2024-05-09T13:32:54.299Z,44.26
2024-05-09T13:35:21.491Z,42.35
2024-05-09T13:37:48.614Z,45.99
2024-05-09T13:40:23.242Z,43.09
2024-05-09T13:42:54.378Z,42.82
2024-05-09T13:45:21.532Z,48.20
2024-05-09T13:47:48.818Z,46.12
2024-05-09T13:50:27.593Z,45.24
2024-05-09T13:53:00.461Z,44.20
2024-05-09T13:55:27.757Z,47.47
2024-05-09T13:57:54.996Z,47.13
2024-05-09T14:00:32.468Z,44.61
2024-05-09T14:03:08.588Z,43.13
2024-05-09T14:05:35.609Z,42.83
2024-05-09T14:08:02.383Z,45.14
2024-05-09T14:10:31.481Z,44.21
2024-05-09T14:12:59.134Z,41.99
2024-05-09T14:15:25.881Z,42.25
2024-05-09T14:17:52.602Z,42.63
2024-05-09T14:20:27.840Z,43.13
2024-05-09T14:22:57.986Z,43.17
2024-05-09T14:25:24.757Z,44.84
2024-05-09T14:27:51.500Z,44.59
2024-05-09T14:30:26.063Z,43.86
2024-05-09T14:33:00.939Z,43.55
2024-05-09T14:35:27.807Z,47.46
2024-05-09T14:37:54.581Z,45.80
2024-05-09T14:40:35.534Z,45.39
2024-05-09T14:43:10.104Z,42.79
2024-05-09T14:45:37.020Z,41.38
2024-05-09T14:48:04.206Z,40.27
2024-05-09T14:50:36.511Z,41.04
2024-05-09T14:53:06.103Z,40.04
2024-05-09T14:55:33.255Z,40.58
2024-05-09T14:58:00.429Z,40.17
2024-05-09T15:00:33.105Z,39.68
2024-05-09T15:03:03.187Z,39.93
2024-05-09T15:05:30.756Z,40.24
2024-05-09T15:07:57.925Z,38.21
2024-05-09T15:10:33.749Z,39.24
2024-05-09T15:13:02.850Z,39.73
2024-05-09T15:15:29.956Z,39.09
2024-05-09T15:17:56.892Z,38.31
2024-05-09T15:20:31.237Z,39.31
2024-05-09T15:23:02.237Z,39.33
2024-05-09T15:25:29.230Z,37.17
2024-05-09T15:27:56.267Z,38.51
2024-05-09T15:30:30.221Z,40.24
2024-05-09T15:32:59.414Z,40.17
2024-05-09T15:35:26.129Z,39.63
2024-05-09T15:37:52.953Z,39.19
2024-05-09T15:40:30.398Z,39.32
2024-05-09T15:43:04.270Z,38.42
2024-05-09T15:45:31.087Z,40.37
2024-05-09T15:47:58.067Z,38.71
2024-05-09T15:50:32.827Z,38.68
2024-05-09T15:53:04.986Z,37.59
2024-05-09T15:55:31.670Z,39.16
2024-05-09T15:57:58.550Z,39.45
2024-05-09T16:00:34.013Z,39.62
2024-05-09T16:03:05.038Z,38.18
2024-05-09T16:05:31.836Z,38.09
2024-05-09T16:07:58.632Z,39.90
2024-05-09T16:10:31.537Z,39.97
2024-05-09T16:13:00.052Z,39.22
2024-05-09T16:15:27.096Z,41.39
2024-05-09T16:17:54.298Z,39.09
2024-05-09T16:20:33.708Z,38.13
2024-05-09T16:23:06.209Z,37.82
2024-05-09T16:25:32.990Z,40.09
2024-05-09T16:27:59.889Z,38.85
2024-05-09T16:30:33.885Z,38.41
2024-05-09T16:33:03.011Z,39.83
2024-05-09T16:35:30.180Z,39.25
2024-05-09T16:37:56.900Z,39.08
2024-05-09T16:40:30.398Z,38.19
2024-05-09T16:43:04.303Z,38.44
2024-05-09T16:45:31.414Z,37.12
2024-05-09T16:47:58.543Z,37.28
2024-05-09T16:50:29.638Z,36.79
2024-05-09T16:52:59.830Z,36.97
2024-05-09T16:55:26.802Z,37.04
2024-05-09T16:57:53.746Z,37.07
2024-05-09T17:00:31.087Z,36.74
2024-05-09T17:03:06.208Z,38.00
2024-05-09T17:05:33.581Z,37.87
2024-05-09T17:08:00.608Z,37.64
2024-05-09T17:10:32.575Z,37.65
2024-05-09T17:13:01.693Z,37.94
2024-05-09T17:15:28.731Z,37.32
2024-05-09T17:17:58.617Z,37.76
2024-05-09T17:20:32.192Z,36.76
2024-05-09T17:23:02.162Z,37.24
2024-05-09T17:25:29.547Z,39.28
2024-05-09T17:27:57.186Z,39.53
2024-05-09T17:30:31.649Z,38.49
2024-05-09T17:33:02.709Z,37.45
2024-05-09T17:35:29.897Z,37.87
2024-05-09T17:37:57.021Z,37.75
2024-05-09T17:40:31.424Z,37.07
2024-05-09T17:43:03.092Z,36.87
2024-05-09T17:45:30.808Z,36.47
2024-05-09T17:47:58.339Z,35.39
2024-05-09T17:50:31.643Z,35.95
2024-05-09T17:53:02.963Z,36.67
2024-05-09T17:55:30.352Z,38.13
2024-05-09T17:57:57.895Z,37.90
2024-05-09T18:00:36.212Z,39.04
2024-05-09T18:03:07.303Z,38.63
2024-05-09T18:05:34.793Z,37.65
2024-05-09T18:08:02.108Z,37.90
2024-05-09T18:10:35.629Z,38.59
2024-05-09T18:13:06.482Z,38.57
2024-05-09T18:15:34.277Z,38.79
2024-05-09T18:18:02.017Z,39.08
2024-05-09T18:20:38.043Z,39.31
2024-05-09T18:23:10.709Z,39.60
2024-05-09T18:25:37.888Z,39.20
2024-05-09T18:28:05.199Z,38.96
2024-05-09T18:30:35.423Z,39.79
2024-05-09T18:33:04.976Z,40.08
2024-05-09T18:35:33.319Z,40.87
2024-05-09T18:38:00.587Z,41.78
2024-05-09T18:40:34.003Z,42.45
2024-05-09T18:43:03.690Z,41.76
2024-05-09T18:45:30.633Z,42.67
2024-05-09T18:47:57.891Z,44.49
2024-05-09T18:50:32.287Z,44.21
2024-05-09T18:53:03.580Z,45.29
2024-05-09T18:55:30.320Z,45.58
2024-05-09T18:57:57.487Z,46.73
2024-05-09T19:00:33.282Z,47.95
2024-05-09T19:03:03.762Z,48.54
2024-05-09T19:05:30.958Z,48.76
2024-05-09T19:07:58.004Z,49.06
2024-05-09T19:10:28.849Z,49.47
2024-05-09T19:13:00.227Z,49.72
2024-05-09T19:15:27.051Z,50.21
2024-05-09T19:17:53.836Z,51.50
2024-05-09T19:20:28.494Z,52.02
2024-05-09T19:22:59.998Z,52.65
2024-05-09T19:25:26.672Z,52.44
2024-05-09T19:27:53.635Z,52.96
2024-05-09T19:30:29.322Z,53.66
2024-05-09T19:33:03.956Z,54.41
2024-05-09T19:35:30.770Z,54.26
2024-05-09T19:37:57.485Z,54.70
2024-05-09T19:40:30.478Z,54.57
2024-05-09T19:43:00.052Z,55.67
2024-05-09T19:45:27.207Z,56.19
2024-05-09T19:47:55.539Z,56.72
2024-05-09T19:50:31.275Z,56.64
2024-05-09T19:53:04.498Z,57.97
2024-05-09T19:55:31.216Z,59.00
2024-05-09T19:57:59.917Z,58.86
2024-05-09T20:00:32.974Z,59.86
2024-05-09T20:03:03.065Z,60.23
2024-05-09T20:05:32.790Z,59.94
2024-05-09T20:07:59.966Z,60.14
2024-05-09T20:10:31.702Z,59.89
2024-05-09T20:13:00.844Z,60.21
2024-05-09T20:15:27.556Z,60.28
2024-05-09T20:17:54.663Z,60.37
2024-05-09T20:20:33.612Z,61.02
2024-05-09T20:23:05.579Z,60.53
2024-05-09T20:25:32.333Z,60.13
2024-05-09T20:27:59.112Z,60.60
2024-05-09T20:30:31.799Z,61.02
2024-05-09T20:33:00.644Z,60.71
2024-05-09T20:35:27.591Z,59.51
2024-05-09T20:37:56.721Z,58.95
2024-05-09T20:40:32.520Z,60.79
2024-05-09T20:43:03.041Z,61.33
2024-05-09T20:45:29.860Z,60.77
2024-05-09T20:47:56.713Z,60.47
2024-05-09T20:50:32.920Z,60.96
2024-05-09T20:53:05.834Z,60.51
2024-05-09T20:55:32.932Z,61.89
2024-05-09T20:58:00.122Z,61.87
2024-05-09T21:00:35.312Z,61.23
2024-05-09T21:03:08.515Z,61.25
2024-05-09T21:05:36.022Z,60.83
2024-05-09T21:08:03.265Z,60.40
2024-05-09T21:10:33.089Z,59.13
2024-05-09T21:13:01.677Z,59.79
2024-05-09T21:15:29.328Z,58.01
2024-05-09T21:17:56.517Z,59.76
2024-05-09T21:20:29.004Z,59.70
2024-05-09T21:22:58.706Z,58.71
2024-05-09T21:25:25.899Z,56.82
2024-05-09T21:27:53.323Z,55.76
2024-05-09T21:30:31.519Z,54.25
2024-05-09T21:33:06.988Z,53.07
2024-05-09T21:35:36.017Z,53.19
2024-05-09T21:38:02.729Z,53.38
2024-05-09T21:40:34.372Z,54.50
2024-05-09T21:43:02.975Z,55.40
2024-05-09T21:45:29.959Z,56.70
2024-05-09T21:47:56.784Z,57.39
2024-05-09T21:50:31.609Z,56.93
2024-05-09T21:53:05.501Z,56.44
2024-05-09T21:55:32.203Z,57.31
2024-05-09T21:57:58.908Z,56.60
2024-05-09T22:00:32.986Z,56.09
2024-05-09T22:03:04.194Z,57.42
2024-05-09T22:05:31.283Z,57.24
2024-05-09T22:07:58.216Z,58.27
2024-05-09T22:10:30.866Z,58.36
2024-05-09T22:13:01.454Z,58.12
2024-05-09T22:15:28.374Z,58.10
2024-05-09T22:17:55.230Z,57.27
2024-05-09T22:20:33.115Z,57.50
2024-05-09T22:23:03.616Z,55.95
2024-05-09T22:25:31.421Z,56.25
2024-05-09T22:27:59.047Z,56.89
2024-05-09T22:30:34.422Z,57.91
2024-05-09T22:33:05.945Z,57.90
2024-05-09T22:35:41.238Z,59.44
2024-05-09T22:38:08.558Z,60.62
2024-05-09T22:40:46.624Z,61.01
2024-05-09T22:43:16.618Z,60.37
2024-05-09T22:45:44.122Z,60.58
2024-05-09T22:48:11.432Z,60.02
2024-05-09T22:50:38.527Z,59.61
2024-05-09T22:53:09.012Z,60.17
2024-05-09T22:55:38.780Z,60.66
2024-05-09T22:58:05.588Z,61.38
2024-05-09T23:00:33.181Z,62.25
2024-05-09T23:03:00.435Z,61.89
2024-05-09T23:05:27.502Z,61.32
2024-05-09T23:07:54.438Z,61.10
2024-05-09T23:10:28.184Z,60.23
2024-05-09T23:13:01.432Z,60.48
2024-05-09T23:15:28.468Z,60.46
2024-05-09T23:17:56.326Z,59.73
2024-05-09T23:20:33.296Z,60.00
2024-05-09T23:23:04.695Z,59.96
2024-05-09T23:25:31.427Z,59.46
2024-05-09T23:27:58.128Z,58.86
2024-05-09T23:30:33.727Z,57.92
2024-05-09T23:33:07.465Z,57.79
2024-05-09T23:35:34.574Z,57.81
2024-05-09T23:38:03.742Z,57.29
2024-05-09T23:40:37.940Z,58.50
2024-05-09T23:43:09.629Z,59.63
2024-05-09T23:45:36.830Z,59.47
2024-05-09T23:48:04.001Z,59.58
2024-05-09T23:50:35.277Z,59.54
2024-05-09T23:53:04.740Z,60.48
2024-05-09T23:55:32.316Z,60.67
2024-05-09T23:58:02.278Z,60.11
